sensor_id;sensor_type;location;lat;lon;timestamp;pressure;altitude;pressure_sealevel;temperature;humidity
51031;BME280;37058;41.442;23.240;2023-04-25T00:02:22;99868.66;;;13.57;100.00
51031;BME280;37058;41.442;23.240;2023-04-25T00:04:48;99865.69;;;13.53;100.00
51031;BME280;37058;41.442;23.240;2023-04-25T00:07:15;99864.88;;;13.53;100.00
51031;BME280;37058;41.442;23.240;2023-04-25T00:09:42;99862.94;;;13.53;100.00
51031;BME280;37058;41.442;23.240;2023-04-25T00:12:08;99864.28;;;13.56;100.00
51031;BME280;37058;41.442;23.240;2023-04-25T00:14:35;99853.91;;;13.53;100.00
51031;BME280;37058;41.442;23.240;2023-04-25T00:17:01;99857.72;;;13.52;100.00
51031;BME280;37058;41.442;23.240;2023-04-25T00:19:28;99859.44;;;13.48;100.00
51031;BME280;37058;41.442;23.240;2023-04-25T00:21:55;99857.72;;;13.52;100.00
51031;BME280;37058;41.442;23.240;2023-04-25T00:24:21;99861.63;;;13.46;100.00
51031;BME280;37058;41.442;23.240;2023-04-25T00:26:47;99864.94;;;13.42;100.00
51031;BME280;37058;41.442;23.240;2023-04-25T00:29:13;99869.03;;;13.45;100.00
51031;BME280;37058;41.442;23.240;2023-04-25T00:31:39;99864.38;;;13.46;100.00
51031;BME280;37058;41.442;23.240;2023-04-25T00:34:06;99858.91;;;13.40;100.00
51031;BME280;37058;41.442;23.240;2023-04-25T00:36:32;99848.81;;;13.36;100.00
51031;BME280;37058;41.442;23.240;2023-04-25T00:38:58;99841.13;;;13.38;100.00
51031;BME280;37058;41.442;23.240;2023-04-25T00:41:26;99833.97;;;13.42;100.00
51031;BME280;37058;41.442;23.240;2023-04-25T00:43:54;99831.72;;;13.44;100.00
51031;BME280;37058;41.442;23.240;2023-04-25T00:46:20;99834.47;;;13.44;100.00
51031;BME280;37058;41.442;23.240;2023-04-25T00:48:46;99833.94;;;13.47;100.00
51031;BME280;37058;41.442;23.240;2023-04-25T00:51:20;99835.81;;;13.47;100.00
51031;BME280;37058;41.442;23.240;2023-04-25T00:53:47;99838.84;;;13.50;100.00
51031;BME280;37058;41.442;23.240;2023-04-25T00:56:14;99839.38;;;13.52;100.00
51031;BME280;37058;41.442;23.240;2023-04-25T00:58:41;99844.56;;;13.54;100.00
51031;BME280;37058;41.442;23.240;2023-04-25T01:01:08;99831.53;;;13.35;100.00
51031;BME280;37058;41.442;23.240;2023-04-25T01:03:39;99818.13;;;13.29;100.00
51031;BME280;37058;41.442;23.240;2023-04-25T01:06:11;99818.66;;;13.31;100.00
51031;BME280;37058;41.442;23.240;2023-04-25T01:08:39;99830.72;;;13.35;100.00
51031;BME280;37058;41.442;23.240;2023-04-25T01:11:05;99827.16;;;13.29;100.00
51031;BME280;37058;41.442;23.240;2023-04-25T01:13:32;99826.66;;;13.27;100.00
51031;BME280;37058;41.442;23.240;2023-04-25T01:15:59;99821.69;;;13.29;100.00
51031;BME280;37058;41.442;23.240;2023-04-25T01:18:25;99816.19;;;13.29;100.00
51031;BME280;37058;41.442;23.240;2023-04-25T01:20:52;99809.91;;;13.29;100.00
51031;BME280;37058;41.442;23.240;2023-04-25T01:23:21;99813.22;;;13.20;100.00
51031;BME280;37058;41.442;23.240;2023-04-25T01:25:48;99813.22;;;13.20;100.00
51031;BME280;37058;41.442;23.240;2023-04-25T01:28:14;99811.56;;;13.25;100.00
51031;BME280;37058;41.442;23.240;2023-04-25T01:30:41;99821.41;;;13.26;100.00
51031;BME280;37058;41.442;23.240;2023-04-25T01:33:08;99822.53;;;13.30;100.00
51031;BME280;37058;41.442;23.240;2023-04-25T01:35:34;99817.03;;;13.30;100.00
51031;BME280;37058;41.442;23.240;2023-04-25T01:38:00;99821.69;;;13.29;100.00
51031;BME280;37058;41.442;23.240;2023-04-25T01:40:27;99819.50;;;13.26;100.00
51031;BME280;37058;41.442;23.240;2023-04-25T01:42:54;99818.13;;;13.23;100.00
51031;BME280;37058;41.442;23.240;2023-04-25T01:45:23;99813.75;;;13.22;100.00
51031;BME280;37058;41.442;23.240;2023-04-25T01:47:48;99810.47;;;13.20;100.00
51031;BME280;37058;41.442;23.240;2023-04-25T01:50:17;99799.53;;;13.20;100.00
51031;BME280;37058;41.442;23.240;2023-04-25T01:52:43;99794.31;;;13.19;100.00
51031;BME280;37058;41.442;23.240;2023-04-25T01:55:11;99802.25;;;13.20;100.00
51031;BME280;37058;41.442;23.240;2023-04-25T01:57:37;99800.06;;;13.22;100.00
51031;BME280;37058;41.442;23.240;2023-04-25T02:00:05;99803.91;;;13.16;100.00
51031;BME280;37058;41.442;23.240;2023-04-25T02:02:32;99798.50;;;13.06;100.00
51031;BME280;37058;41.442;23.240;2023-04-25T02:04:58;99788.69;;;13.00;100.00
51031;BME280;37058;41.442;23.240;2023-04-25T02:07:25;99793.91;;;13.01;100.00
51031;BME280;37058;41.442;23.240;2023-04-25T02:09:51;99788.41;;;13.01;100.00
51031;BME280;37058;41.442;23.240;2023-04-25T02:12:17;99803.50;;;12.99;100.00
51031;BME280;37058;41.442;23.240;2023-04-25T02:14:43;99801.28;;;13.01;100.00
51031;BME280;37058;41.442;23.240;2023-04-25T02:17:09;99798.81;;;13.05;100.00
51031;BME280;37058;41.442;23.240;2023-04-25T02:19:35;99805.91;;;13.06;100.00
51031;BME280;37058;41.442;23.240;2023-04-25T02:22:01;99803.97;;;13.11;100.00
51031;BME280;37058;41.442;23.240;2023-04-25T02:24:27;99793.25;;;13.15;100.00
51031;BME280;37058;41.442;23.240;2023-04-25T02:26:53;99785.56;;;13.17;100.00
51031;BME280;37058;41.442;23.240;2023-04-25T02:29:21;99789.66;;;13.19;100.00
51031;BME280;37058;41.442;23.240;2023-04-25T02:31:47;99783.88;;;13.21;100.00
51031;BME280;37058;41.442;23.240;2023-04-25T02:34:13;99786.34;;;13.22;100.00
51031;BME280;37058;41.442;23.240;2023-04-25T02:36:39;99786.59;;;13.26;100.00
51031;BME280;37058;41.442;23.240;2023-04-25T02:39:05;99788.50;;;13.26;100.00
51031;BME280;37058;41.442;23.240;2023-04-25T02:41:31;99787.97;;;13.29;100.00
51031;BME280;37058;41.442;23.240;2023-04-25T02:43:56;99798.66;;;13.25;100.00
51031;BME280;37058;41.442;23.240;2023-04-25T02:46:22;99793.19;;;13.25;100.00
51031;BME280;37058;41.442;23.240;2023-04-25T02:48:48;99797.84;;;13.25;100.00
51031;BME280;37058;41.442;23.240;2023-04-25T02:51:14;99799.25;;;13.22;100.00
51031;BME280;37058;41.442;23.240;2023-04-25T02:53:42;99788.28;;;13.22;100.00
51031;BME280;37058;41.442;23.240;2023-04-25T02:56:08;99789.63;;;13.25;100.00
51031;BME280;37058;41.442;23.240;2023-04-25T02:58:33;99794.00;;;13.26;100.00
51031;BME280;37058;41.442;23.240;2023-04-25T03:00:59;99803.03;;;13.26;100.00
51031;BME280;37058;41.442;23.240;2023-04-25T03:03:26;99800.28;;;13.26;100.00
51031;BME280;37058;41.442;23.240;2023-04-25T03:05:52;99789.31;;;13.26;100.00
51031;BME280;37058;41.442;23.240;2023-04-25T03:08:18;99791.00;;;13.27;100.00
51031;BME280;37058;41.442;23.240;2023-04-25T03:10:45;99800.59;;;13.30;100.00
51031;BME280;37058;41.442;23.240;2023-04-25T03:13:11;99802.22;;;13.31;100.00
51031;BME280;37058;41.442;23.240;2023-04-25T03:15:39;99799.75;;;13.29;100.00
51031;BME280;37058;41.442;23.240;2023-04-25T03:18:04;99804.16;;;13.30;100.00
51031;BME280;37058;41.442;23.240;2023-04-25T03:20:30;99797.84;;;13.30;100.00
51031;BME280;37058;41.442;23.240;2023-04-25T03:22:56;99809.09;;;13.23;100.00
51031;BME280;37058;41.442;23.240;2023-04-25T03:25:22;99804.47;;;13.18;99.90
51031;BME280;37058;41.442;23.240;2023-04-25T03:27:48;99799.03;;;13.08;100.00
51031;BME280;37058;41.442;23.240;2023-04-25T03:30:14;99805.09;;;13.05;100.00
51031;BME280;37058;41.442;23.240;2023-04-25T03:32:40;99806.22;;;13.04;100.00
51031;BME280;37058;41.442;23.240;2023-04-25T03:35:06;99807.59;;;13.01;100.00
51031;BME280;37058;41.442;23.240;2023-04-25T03:37:32;99808.13;;;13.04;100.00
51031;BME280;37058;41.442;23.240;2023-04-25T03:39:58;99799.63;;;13.05;100.00
51031;BME280;37058;41.442;23.240;2023-04-25T03:42:24;99804.53;;;13.08;99.97
51031;BME280;37058;41.442;23.240;2023-04-25T03:44:51;99791.94;;;13.07;99.59
51031;BME280;37058;41.442;23.240;2023-04-25T03:47:17;99797.41;;;13.07;99.33
51031;BME280;37058;41.442;23.240;2023-04-25T03:49:43;99791.38;;;13.10;99.46
51031;BME280;37058;41.442;23.240;2023-04-25T03:52:10;99789.16;;;13.12;99.06
51031;BME280;37058;41.442;23.240;2023-04-25T03:54:35;99789.97;;;13.13;99.22
51031;BME280;37058;41.442;23.240;2023-04-25T03:57:01;99789.75;;;13.09;99.75
51031;BME280;37058;41.442;23.240;2023-04-25T03:59:27;99786.47;;;13.07;99.58
51031;BME280;37058;41.442;23.240;2023-04-25T04:01:54;99788.13;;;13.03;99.55
51031;BME280;37058;41.442;23.240;2023-04-25T04:04:20;99800.19;;;13.02;100.00
51031;BME280;37058;41.442;23.240;2023-04-25T04:06:45;99801.59;;;12.99;100.00
51031;BME280;37058;41.442;23.240;2023-04-25T04:09:11;99792.09;;;12.82;100.00
51031;BME280;37058;41.442;23.240;2023-04-25T04:11:38;99795.13;;;12.75;100.00
51031;BME280;37058;41.442;23.240;2023-04-25T04:14:06;99800.38;;;12.71;100.00
51031;BME280;37058;41.442;23.240;2023-04-25T04:16:32;99811.34;;;12.71;100.00
51031;BME280;37058;41.442;23.240;2023-04-25T04:18:58;99810.75;;;12.74;100.00
51031;BME280;37058;41.442;23.240;2023-04-25T04:21:24;99813.75;;;12.78;100.00
51031;BME280;37058;41.442;23.240;2023-04-25T04:23:50;99817.06;;;12.75;100.00
51031;BME280;37058;41.442;23.240;2023-04-25T04:26:16;99821.75;;;12.69;100.00
51031;BME280;37058;41.442;23.240;2023-04-25T04:28:43;99822.28;;;12.71;100.00
51031;BME280;37058;41.442;23.240;2023-04-25T04:31:10;99824.50;;;12.69;100.00
51031;BME280;37058;41.442;23.240;2023-04-25T04:33:36;99823.09;;;12.77;100.00
51031;BME280;37058;41.442;23.240;2023-04-25T04:36:03;99826.06;;;12.80;100.00
51031;BME280;37058;41.442;23.240;2023-04-25T04:38:30;99820.31;;;12.82;100.00
51031;BME280;37058;41.442;23.240;2023-04-25T04:40:56;99820.59;;;12.80;100.00
51031;BME280;37058;41.442;23.240;2023-04-25T04:43:22;99820.00;;;12.84;100.00
51031;BME280;37058;41.442;23.240;2023-04-25T04:45:48;99805.78;;;12.87;100.00
51031;BME280;37058;41.442;23.240;2023-04-25T04:48:16;99801.38;;;12.86;100.00
51031;BME280;37058;41.442;23.240;2023-04-25T04:50:45;99801.38;;;12.86;100.00
51031;BME280;37058;41.442;23.240;2023-04-25T04:53:12;99815.31;;;12.94;100.00
51031;BME280;37058;41.442;23.240;2023-04-25T04:55:38;99810.03;;;13.03;100.00
51031;BME280;37058;41.442;23.240;2023-04-25T04:58:07;99802.59;;;13.09;100.00
51031;BME280;37058;41.442;23.240;2023-04-25T05:00:33;99792.44;;;13.14;100.00
51031;BME280;37058;41.442;23.240;2023-04-25T05:03:00;99792.44;;;13.14;100.00
51031;BME280;37058;41.442;23.240;2023-04-25T05:05:25;99792.41;;;13.19;100.00
51031;BME280;37058;41.442;23.240;2023-04-25T05:07:51;99784.97;;;13.25;100.00
51031;BME280;37058;41.442;23.240;2023-04-25T05:10:19;99782.88;;;13.46;100.00
51031;BME280;37058;41.442;23.240;2023-04-25T05:12:45;99777.47;;;13.70;100.00
51031;BME280;37058;41.442;23.240;2023-04-25T05:15:11;99780.88;;;13.86;100.00
51031;BME280;37058;41.442;23.240;2023-04-25T05:17:37;99776.00;;;14.07;99.22
51031;BME280;37058;41.442;23.240;2023-04-25T05:20:08;99775.47;;;14.29;95.96
51031;BME280;37058;41.442;23.240;2023-04-25T05:22:36;99778.94;;;14.64;94.85
51031;BME280;37058;41.442;23.240;2023-04-25T05:25:03;99771.00;;;15.00;92.82
51031;BME280;37058;41.442;23.240;2023-04-25T05:27:29;99768.97;;;15.06;89.20
51031;BME280;37058;41.442;23.240;2023-04-25T05:29:55;99771.66;;;15.11;88.57
51031;BME280;37058;41.442;23.240;2023-04-25T05:32:21;99772.53;;;15.25;87.06
51031;BME280;37058;41.442;23.240;2023-04-25T05:34:46;99778.06;;;15.39;87.28
51031;BME280;37058;41.442;23.240;2023-04-25T05:37:12;99785.56;;;15.20;87.19
51031;BME280;37058;41.442;23.240;2023-04-25T05:39:38;99777.31;;;15.20;87.94
51031;BME280;37058;41.442;23.240;2023-04-25T05:42:04;99771.03;;;15.14;88.76
51031;BME280;37058;41.442;23.240;2023-04-25T05:44:30;99774.78;;;15.04;89.54
51031;BME280;37058;41.442;23.240;2023-04-25T05:46:57;99769.38;;;14.99;90.42
51031;BME280;37058;41.442;23.240;2023-04-25T05:49:22;99769.59;;;14.84;90.05
51031;BME280;37058;41.442;23.240;2023-04-25T05:51:48;99776.09;;;14.69;90.32
51031;BME280;37058;41.442;23.240;2023-04-25T05:54:14;99786.75;;;14.51;91.53
51031;BME280;37058;41.442;23.240;2023-04-25T05:56:40;99786.34;;;14.39;92.27
51031;BME280;37058;41.442;23.240;2023-04-25T05:59:06;99781.25;;;14.27;93.10
51031;BME280;37058;41.442;23.240;2023-04-25T06:01:32;99792.72;;;14.11;94.60
51031;BME280;37058;41.442;23.240;2023-04-25T06:03:58;99782.19;;;14.18;96.86
51031;BME280;37058;41.442;23.240;2023-04-25T06:06:23;99780.03;;;14.39;96.13
51031;BME280;37058;41.442;23.240;2023-04-25T06:08:50;99775.09;;;14.84;90.44
51031;BME280;37058;41.442;23.240;2023-04-25T06:11:16;99782.41;;;15.45;86.93
51031;BME280;37058;41.442;23.240;2023-04-25T06:13:42;99786.88;;;16.20;83.85
51031;BME280;37058;41.442;23.240;2023-04-25T06:16:07;99786.25;;;16.79;79.15
51031;BME280;37058;41.442;23.240;2023-04-25T06:18:33;99777.41;;;17.49;74.73
51031;BME280;37058;41.442;23.240;2023-04-25T06:20:59;99784.00;;;17.40;75.82
51031;BME280;37058;41.442;23.240;2023-04-25T06:23:25;99782.03;;;19.87;68.79
51031;BME280;37058;41.442;23.240;2023-04-25T06:25:51;99774.09;;;23.27;55.44
51031;BME280;37058;41.442;23.240;2023-04-25T06:28:17;99766.59;;;21.92;57.46
51031;BME280;37058;41.442;23.240;2023-04-25T06:30:42;99778.09;;;24.14;50.75
51031;BME280;37058;41.442;23.240;2023-04-25T06:33:08;99778.34;;;22.10;56.07
51031;BME280;37058;41.442;23.240;2023-04-25T06:35:35;99778.66;;;21.09;58.79
51031;BME280;37058;41.442;23.240;2023-04-25T06:38:01;99781.50;;;20.41;61.24
51031;BME280;37058;41.442;23.240;2023-04-25T06:40:26;99779.44;;;19.90;63.17
51031;BME280;37058;41.442;23.240;2023-04-25T06:42:52;99762.47;;;19.92;64.30
51031;BME280;37058;41.442;23.240;2023-04-25T06:45:18;99763.63;;;19.91;64.49
51031;BME280;37058;41.442;23.240;2023-04-25T06:50:10;99766.28;;;19.44;66.98
51031;BME280;37058;41.442;23.240;2023-04-25T06:52:36;99761.09;;;19.16;67.28
51031;BME280;37058;41.442;23.240;2023-04-25T06:55:02;99762.56;;;18.96;67.71
51031;BME280;37058;41.442;23.240;2023-04-25T06:57:28;99755.97;;;18.49;68.37
51031;BME280;37058;41.442;23.240;2023-04-25T06:59:54;99759.13;;;18.16;71.15
51031;BME280;37058;41.442;23.240;2023-04-25T07:02:20;99766.19;;;18.00;72.38
51031;BME280;37058;41.442;23.240;2023-04-25T07:04:47;99762.72;;;17.85;72.43
51031;BME280;37058;41.442;23.240;2023-04-25T07:07:13;99764.56;;;17.76;72.21
51031;BME280;37058;41.442;23.240;2023-04-25T07:09:39;99762.09;;;17.66;71.78
51031;BME280;37058;41.442;23.240;2023-04-25T07:12:05;99767.78;;;17.69;73.28
51031;BME280;37058;41.442;23.240;2023-04-25T07:14:31;99762.59;;;17.68;73.18
51031;BME280;37058;41.442;23.240;2023-04-25T07:16:56;99760.94;;;17.67;73.52
51031;BME280;37058;41.442;23.240;2023-04-25T07:19:23;99765.47;;;17.63;73.36
51031;BME280;37058;41.442;23.240;2023-04-25T07:21:55;99756.69;;;17.61;75.14
51031;BME280;37058;41.442;23.240;2023-04-25T07:24:21;99763.78;;;17.53;73.92
51031;BME280;37058;41.442;23.240;2023-04-25T07:26:47;99758.81;;;17.64;73.42
51031;BME280;37058;41.442;23.240;2023-04-25T07:29:13;99761.22;;;17.57;73.25
51031;BME280;37058;41.442;23.240;2023-04-25T07:31:39;99757.75;;;17.51;72.87
51031;BME280;37058;41.442;23.240;2023-04-25T07:34:05;99756.97;;;17.50;74.18
51031;BME280;37058;41.442;23.240;2023-04-25T07:36:31;99759.22;;;17.26;74.70
51031;BME280;37058;41.442;23.240;2023-04-25T07:38:57;99759.41;;;17.29;76.22
51031;BME280;37058;41.442;23.240;2023-04-25T07:41:23;99737.94;;;17.49;77.76
51031;BME280;37058;41.442;23.240;2023-04-25T07:43:49;99741.25;;;17.60;77.12
51031;BME280;37058;41.442;23.240;2023-04-25T07:46:15;99738.56;;;17.77;76.72
51031;BME280;37058;41.442;23.240;2023-04-25T07:48:40;99734.81;;;17.95;76.58
51031;BME280;37058;41.442;23.240;2023-04-25T07:51:06;99741.19;;;18.05;73.31
51031;BME280;37058;41.442;23.240;2023-04-25T07:53:33;99743.44;;;18.03;74.05
51031;BME280;37058;41.442;23.240;2023-04-25T07:56:00;99734.47;;;17.88;72.24
51031;BME280;37058;41.442;23.240;2023-04-25T07:58:26;99735.28;;;17.97;71.86
51031;BME280;37058;41.442;23.240;2023-04-25T08:00:52;99730.28;;;18.00;70.77
51031;BME280;37058;41.442;23.240;2023-04-25T08:03:17;99733.84;;;18.00;69.20
51031;BME280;37058;41.442;23.240;2023-04-25T08:05:43;99737.06;;;18.33;69.76
51031;BME280;37058;41.442;23.240;2023-04-25T08:08:12;99729.59;;;18.42;68.23
51031;BME280;37058;41.442;23.240;2023-04-25T08:10:38;99725.03;;;18.38;69.08
51031;BME280;37058;41.442;23.240;2023-04-25T08:13:04;99730.75;;;18.41;70.73
51031;BME280;37058;41.442;23.240;2023-04-25T08:15:29;99729.47;;;18.65;70.69
51031;BME280;37058;41.442;23.240;2023-04-25T08:17:58;99724.16;;;18.86;70.06
51031;BME280;37058;41.442;23.240;2023-04-25T08:20:26;99736.03;;;18.95;68.69
51031;BME280;37058;41.442;23.240;2023-04-25T08:22:52;99735.22;;;18.95;67.66
51031;BME280;37058;41.442;23.240;2023-04-25T08:25:18;99742.38;;;18.96;69.31
51031;BME280;37058;41.442;23.240;2023-04-25T08:27:43;99735.22;;;18.86;67.93
51031;BME280;37058;41.442;23.240;2023-04-25T08:30:10;99737.50;;;18.93;69.95
51031;BME280;37058;41.442;23.240;2023-04-25T08:32:36;99728.41;;;18.92;68.45
51031;BME280;37058;41.442;23.240;2023-04-25T08:35:04;99732.97;;;18.97;69.66
51031;BME280;37058;41.442;23.240;2023-04-25T08:37:31;99725.09;;;18.73;69.15
51031;BME280;37058;41.442;23.240;2023-04-25T08:39:56;99725.09;;;18.64;68.76
51031;BME280;37058;41.442;23.240;2023-04-25T08:42:24;99725.59;;;18.66;69.15
51031;BME280;37058;41.442;23.240;2023-04-25T08:44:53;99717.75;;;18.68;69.54
51031;BME280;37058;41.442;23.240;2023-04-25T08:47:22;99716.91;;;18.50;69.92
51031;BME280;37058;41.442;23.240;2023-04-25T08:49:48;99718.34;;;18.30;71.87
51031;BME280;37058;41.442;23.240;2023-04-25T08:52:17;99718.31;;;18.22;72.07
51031;BME280;37058;41.442;23.240;2023-04-25T08:54:48;99718.78;;;18.15;72.14
51031;BME280;37058;41.442;23.240;2023-04-25T08:57:15;99716.38;;;18.22;72.17
51031;BME280;37058;41.442;23.240;2023-04-25T08:59:41;99713.78;;;18.26;72.18
51031;BME280;37058;41.442;23.240;2023-04-25T09:02:12;99711.69;;;18.31;70.49
51031;BME280;37058;41.442;23.240;2023-04-25T09:04:43;99709.59;;;18.46;69.26
51031;BME280;37058;41.442;23.240;2023-04-25T09:07:10;99716.47;;;18.57;68.67
51031;BME280;37058;41.442;23.240;2023-04-25T09:09:36;99711.03;;;18.43;68.43
51031;BME280;37058;41.442;23.240;2023-04-25T09:12:02;99707.81;;;18.50;69.82
51031;BME280;37058;41.442;23.240;2023-04-25T09:14:28;99711.09;;;18.52;70.76
51031;BME280;37058;41.442;23.240;2023-04-25T09:19:32;99697.22;;;18.43;69.89
51031;BME280;37058;41.442;23.240;2023-04-25T09:22:00;99692.69;;;18.38;69.35
51031;BME280;37058;41.442;23.240;2023-04-25T09:26:59;99685.66;;;18.32;70.13
51031;BME280;37058;41.442;23.240;2023-04-25T09:29:35;99684.00;;;18.23;69.48
51031;BME280;37058;41.442;23.240;2023-04-25T09:32:21;99676.72;;;18.18;69.74
51031;BME280;37058;41.442;23.240;2023-04-25T09:34:56;99675.06;;;18.17;68.88
51031;BME280;37058;41.442;23.240;2023-04-25T09:37:29;99672.81;;;18.19;69.54
51031;BME280;37058;41.442;23.240;2023-04-25T09:39:59;99665.97;;;18.25;70.11
51031;BME280;37058;41.442;23.240;2023-04-25T09:42:27;99659.50;;;18.38;69.75
51031;BME280;37058;41.442;23.240;2023-04-25T09:44:56;99659.50;;;18.56;69.89
51031;BME280;37058;41.442;23.240;2023-04-25T09:47:25;99653.53;;;18.71;71.50
51031;BME280;37058;41.442;23.240;2023-04-25T09:49:53;99646.88;;;18.90;68.69
51031;BME280;37058;41.442;23.240;2023-04-25T09:52:22;99640.16;;;19.08;67.03
51031;BME280;37058;41.442;23.240;2023-04-25T09:54:50;99637.34;;;19.25;67.27
51031;BME280;37058;41.442;23.240;2023-04-25T09:57:24;99623.63;;;19.38;65.22
51031;BME280;37058;41.442;23.240;2023-04-25T09:59:55;99634.19;;;19.53;66.26
51031;BME280;37058;41.442;23.240;2023-04-25T10:02:25;99628.94;;;19.52;60.58
51031;BME280;37058;41.442;23.240;2023-04-25T10:04:53;99623.91;;;19.54;59.44
51031;BME280;37058;41.442;23.240;2023-04-25T10:07:29;99617.38;;;19.58;59.03
51031;BME280;37058;41.442;23.240;2023-04-25T10:10:01;99608.88;;;19.63;58.61
51031;BME280;37058;41.442;23.240;2023-04-25T10:12:29;99607.78;;;19.56;57.50
51031;BME280;37058;41.442;23.240;2023-04-25T10:14:58;99592.19;;;19.42;58.48
51031;BME280;37058;41.442;23.240;2023-04-25T10:17:25;99589.38;;;19.51;59.41
51031;BME280;37058;41.442;23.240;2023-04-25T10:19:53;99581.03;;;19.60;56.09
51031;BME280;37058;41.442;23.240;2023-04-25T10:22:41;99580.22;;;19.68;56.51
51031;BME280;37058;41.442;23.240;2023-04-25T10:25:08;99571.66;;;19.82;55.02
51031;BME280;37058;41.442;23.240;2023-04-25T10:27:35;99555.44;;;19.92;57.21
51031;BME280;37058;41.442;23.240;2023-04-25T10:32:32;99549.72;;;20.19;54.60
51031;BME280;37058;41.442;23.240;2023-04-25T10:35:18;99553.03;;;20.33;53.02
51031;BME280;37058;41.442;23.240;2023-04-25T10:38:09;99550.72;;;20.35;51.16
51031;BME280;37058;41.442;23.240;2023-04-25T10:40:36;99541.13;;;20.32;48.17
51031;BME280;37058;41.442;23.240;2023-04-25T10:45:59;99550.00;;;20.26;48.85
51031;BME280;37058;41.442;23.240;2023-04-25T10:48:27;99549.19;;;20.25;49.22
51031;BME280;37058;41.442;23.240;2023-04-25T10:51:15;99543.03;;;20.20;50.13
51031;BME280;37058;41.442;23.240;2023-04-25T10:53:44;99549.78;;;20.10;58.16
51031;BME280;37058;41.442;23.240;2023-04-25T10:56:20;99547.47;;;19.70;53.58
51031;BME280;37058;41.442;23.240;2023-04-25T10:58:48;99535.03;;;19.38;52.67
51031;BME280;37058;41.442;23.240;2023-04-25T11:01:19;99541.69;;;19.07;54.49
51031;BME280;37058;41.442;23.240;2023-04-25T11:03:45;99531.97;;;18.83;54.84
51031;BME280;37058;41.442;23.240;2023-04-25T11:06:27;99530.69;;;18.55;55.48
51031;BME280;37058;41.442;23.240;2023-04-25T11:08:55;99538.34;;;18.40;57.33
51031;BME280;37058;41.442;23.240;2023-04-25T11:11:21;99543.75;;;18.28;59.03
51031;BME280;37058;41.442;23.240;2023-04-25T11:13:50;99541.13;;;18.06;57.62
51031;BME280;37058;41.442;23.240;2023-04-25T11:16:17;99541.09;;;17.88;58.67
51031;BME280;37058;41.442;23.240;2023-04-25T11:18:44;99538.28;;;17.71;53.98
51031;BME280;37058;41.442;23.240;2023-04-25T11:21:11;99541.34;;;17.61;54.09
51031;BME280;37058;41.442;23.240;2023-04-25T11:23:37;99539.38;;;17.52;59.17
51031;BME280;37058;41.442;23.240;2023-04-25T11:26:04;99537.38;;;17.44;59.57
51031;BME280;37058;41.442;23.240;2023-04-25T11:28:29;99539.31;;;17.35;60.84
51031;BME280;37058;41.442;23.240;2023-04-25T11:30:56;99522.25;;;17.33;57.69
51031;BME280;37058;41.442;23.240;2023-04-25T11:33:26;99526.97;;;17.41;60.95
51031;BME280;37058;41.442;23.240;2023-04-25T11:35:56;99518.41;;;17.51;56.45
51031;BME280;37058;41.442;23.240;2023-04-25T11:38:23;99518.75;;;17.59;60.60
51031;BME280;37058;41.442;23.240;2023-04-25T11:40:54;99524.94;;;17.64;60.00
51031;BME280;37058;41.442;23.240;2023-04-25T11:43:21;99524.47;;;17.71;66.75
51031;BME280;37058;41.442;23.240;2023-04-25T11:45:51;99524.13;;;17.64;61.09
51031;BME280;37058;41.442;23.240;2023-04-25T11:48:18;99524.63;;;17.66;61.98
51031;BME280;37058;41.442;23.240;2023-04-25T11:50:44;99516.34;;;17.74;61.96
51031;BME280;37058;41.442;23.240;2023-04-25T11:53:11;99517.78;;;17.72;60.93
51031;BME280;37058;41.442;23.240;2023-04-25T11:55:37;99522.16;;;17.64;59.80
51031;BME280;37058;41.442;23.240;2023-04-25T11:58:04;99519.75;;;17.63;59.03
51031;BME280;37058;41.442;23.240;2023-04-25T12:00:31;99519.91;;;17.66;58.34
51031;BME280;37058;41.442;23.240;2023-04-25T12:02:57;99520.41;;;17.68;59.66
51031;BME280;37058;41.442;23.240;2023-04-25T12:05:29;99524.47;;;17.71;59.19
51031;BME280;37058;41.442;23.240;2023-04-25T12:07:56;99538.13;;;17.76;59.03
51031;BME280;37058;41.442;23.240;2023-04-25T12:10:23;99538.00;;;17.81;60.09
51031;BME280;37058;41.442;23.240;2023-04-25T12:12:49;99534.59;;;17.84;59.82
51031;BME280;37058;41.442;23.240;2023-04-25T12:15:23;99542.72;;;17.89;61.37
51031;BME280;37058;41.442;23.240;2023-04-25T12:17:52;99565.31;;;17.91;65.29
51031;BME280;37058;41.442;23.240;2023-04-25T12:20:31;99590.16;;;17.91;69.04
51031;BME280;37058;41.442;23.240;2023-04-25T12:22:57;99607.31;;;17.71;67.96
51031;BME280;37058;41.442;23.240;2023-04-25T12:25:43;99625.84;;;17.39;61.79
51031;BME280;37058;41.442;23.240;2023-04-25T12:28:20;99627.47;;;17.09;64.71
51031;BME280;37058;41.442;23.240;2023-04-25T12:31:12;99647.81;;;16.54;68.61
51031;BME280;37058;41.442;23.240;2023-04-25T12:33:41;99645.84;;;16.04;73.18
51031;BME280;37058;41.442;23.240;2023-04-25T12:36:08;99652.59;;;15.71;76.06
51031;BME280;37058;41.442;23.240;2023-04-25T12:38:41;99682.28;;;15.27;76.81
51031;BME280;37058;41.442;23.240;2023-04-25T12:41:08;99712.06;;;14.87;78.77
51031;BME280;37058;41.442;23.240;2023-04-25T12:43:34;99727.66;;;14.73;81.34
51031;BME280;37058;41.442;23.240;2023-04-25T12:46:00;99725.59;;;14.65;82.11
51031;BME280;37058;41.442;23.240;2023-04-25T12:48:26;99724.09;;;14.54;81.65
51031;BME280;37058;41.442;23.240;2023-04-25T12:50:52;99730.72;;;14.47;83.04
51031;BME280;37058;41.442;23.240;2023-04-25T12:53:23;99725.03;;;14.44;81.12
51031;BME280;37058;41.442;23.240;2023-04-25T12:55:52;99717.13;;;14.37;81.84
51031;BME280;37058;41.442;23.240;2023-04-25T12:58:19;99709.13;;;14.41;82.30
51031;BME280;37058;41.442;23.240;2023-04-25T13:00:46;99704.88;;;14.29;82.95